Penfield, PA (15849)

2:37 PM EDT on July 29, 2016 (GMT -0400)
Treasure Lake | | Change Station

Elev 1722 ft 41.16 °N, 78.71 °W | Updated 4 seconds ago

Scattered Clouds
Scattered Clouds
81.5 °F
Feels Like 83 °F
N
0.0
Wind Variable Wind from North
Gusts 0.0 mph

Today
High -- | Low -- °F
--% Chance of Precip.
Yesterday
High -- | Low -- °F
Precip. -- in
Pressure 29.92 in
Visibility 10.0 miles
Clouds Few 3000 ft
Scattered Clouds 10000 ft
Heat Index 83 °F
Dew Point 64 °F
Humidity 55%
Rainfall 0.00 in
Snow Depth Not available.
6:07 AM 8:33 PM
Waning Crescent, 20% visible
METAR KFIG 291754Z AUTO 22007KT 190V250 10SM FEW030 SCT100 28/18 A2995 RMK AO2 SLP132 T02830183 10294 20189 58007
Pressure 29.92 in
Visibility 10.0 miles
Clouds Few 3000 ft
Scattered Clouds 10000 ft
Heat Index 83 °F
Dew Point 64 °F
Humidity 55%
Rainfall 0.00 in
Snow Depth Not available.
6:07 AM 8:33 PM
Waning Crescent, 20% visible
METAR KFIG 291754Z AUTO 22007KT 190V250 10SM FEW030 SCT100 28/18 A2995 RMK AO2 SLP132 T02830183 10294 20189 58007

10-Day Weather Forecast

Almanac

Astronomy

Jul. 29, 2016 Rise Set
Actual Time
Civil Twilight
Nautical Twilight
Astronomical Twilight
Moon
Length of Visible Light
Length of Day
Tomorrow will be .
, % of the Moon is Illuminated

Today's Extremes

State Highs State Lows

Community

WunderPhotos

Upload Photos

1,928,393 photos uploaded!

WunderBlog® & News

Nearby

Air Quality

  Air Quality AQ Index Pollutant
Not available.

Snow Depth

Station Depth Elevation

Earthquake Activity

City Distance Mag. Time & Date
Minimum magnitude displayed is 2.5.

Coastal Water Temperatures

Place Temperature

Stations

Nearby Weather Stations

Station Location Temp. Windchill Dew Point Humidity Wind Precip. Elev Updated Type
                   

Watches & Warnings

There are currently no watches in effect.